Time;durP1;ratioP1;P1;durP2;ratioP2;P2;SDS_P1;SDS_P2;PMS_P1;PMS_P2;Temp;Humidity;BMP_temperature;BMP_pressure;BME280_temperature;BME280_humidity;BME280_pressure;Samples;Min_cycle;Max_cycle;Signal;HPM_P1;HPM_P2
2021/10/01 00:01:29;;;;;;;;;;;12.00;99.90;;;;;;5095011;28;19977;-78
2021/10/01 00:03:55;;;;;;;;;;;12.00;99.90;;;;;;5100268;28;19924;-79
2021/10/01 00:06:22;;;;;;;;;;;12.10;99.90;;;;;;5097473;28;19928;-78
2021/10/01 00:08:48;;;;;;;;;;;12.10;99.90;;;;;;5097476;28;20012;-78
2021/10/01 00:11:15;;;;;;;;;;;12.10;99.90;;;;;;5090861;27;20074;-79
2021/10/01 00:13:43;;;;;;;;;;;12.10;99.90;;;;;;5100420;28;19930;-79
2021/10/01 00:16:10;;;;;;;;;;;12.10;99.90;;;;;;5093219;28;19930;-78
2021/10/01 00:18:37;;;;;;;;;;;12.10;99.90;;;;;;5109682;28;20031;-79
2021/10/01 00:21:04;;;;;;;;;;;12.10;99.90;;;;;;5098582;27;20382;-79
2021/10/01 00:23:31;;;;;;;;;;;12.10;99.90;;;;;;5101524;28;20013;-79
2021/10/01 00:25:58;;;;;;;;;;;12.10;99.90;;;;;;5093519;28;19932;-78
2021/10/01 00:28:24;;;;;;;;;;;12.00;99.90;;;;;;5097760;28;19934;-79
2021/10/01 00:30:52;;;;;;;;;;;12.00;99.90;;;;;;5099437;28;20538;-79
2021/10/01 00:33:19;;;;;;;;;;;12.10;99.90;;;;;;5098919;28;19931;-79
2021/10/01 00:35:46;;;;;;;;;;;12.00;99.90;;;;;;5099222;28;20007;-79
2021/10/01 00:38:12;;;;;;;;;;;12.10;99.90;;;;;;5094467;28;19960;-79
2021/10/01 00:40:39;;;;;;;;;;;12.10;99.90;;;;;;5101866;28;19979;-79
2021/10/01 00:43:06;;;;;;;;;;;12.10;99.90;;;;;;5099119;28;19930;-79
2021/10/01 00:45:33;;;;;;;;;;;12.10;99.90;;;;;;5092235;28;19935;-79
2021/10/01 00:48:01;;;;;;;;;;;12.20;99.90;;;;;;5095299;28;19930;-79
2021/10/01 00:50:27;;;;;;;;;;;12.20;99.90;;;;;;5100800;28;19924;-79
2021/10/01 00:52:54;;;;;;;;;;;12.20;99.90;;;;;;5098103;28;20313;-79
2021/10/01 00:55:21;;;;;;;;;;;12.30;99.90;;;;;;5102581;28;19930;-79
2021/10/01 00:57:48;;;;;;;;;;;12.30;99.90;;;;;;5092991;27;19924;-79
2021/10/01 01:00:24;;;;;;;;;;;12.30;99.90;;;;;;5093254;28;19934;-80
2021/10/01 01:02:51;;;;;;;;;;;12.30;99.90;;;;;;5097199;28;19928;-80
2021/10/01 01:05:19;;;;;;;;;;;12.30;99.90;;;;;;5098979;28;20263;-80
2021/10/01 01:07:50;;;;;;;;;;;12.30;99.90;;;;;;5095077;28;20310;-81
2021/10/01 01:10:21;;;;;;;;;;;12.20;99.90;;;;;;5092819;28;19966;-82
2021/10/01 01:12:50;;;;;;;;;;;12.20;99.90;;;;;;5093522;28;19934;-81
2021/10/01 01:15:18;;;;;;;;;;;12.20;99.90;;;;;;5098807;28;19924;-82
2021/10/01 01:17:46;;;;;;;;;;;12.10;99.90;;;;;;5091099;28;20388;-81
2021/10/01 01:20:16;;;;;;;;;;;12.10;99.90;;;;;;5095058;28;19927;-81
2021/10/01 01:22:49;;;;;;;;;;;12.00;99.90;;;;;;5090439;28;20469;-81
2021/10/01 01:25:31;;;;;;;;;;;12.00;99.90;;;;;;5091770;28;20304;-82
2021/10/01 01:28:07;;;;;;;;;;;12.00;99.90;;;;;;5085154;28;19938;-81
2021/10/01 01:30:37;;;;;;;;;;;11.90;99.90;;;;;;5098650;28;20363;-81
2021/10/01 01:33:06;;;;;;;;;;;11.90;99.90;;;;;;5093345;28;20375;-80
2021/10/01 01:35:34;;;;;;;;;;;11.90;99.90;;;;;;5099215;28;19924;-80
2021/10/01 01:38:05;;;;;;;;;;;11.90;99.90;;;;;;5100686;28;20400;-82
2021/10/01 01:40:33;;;;;;;;;;;11.90;99.90;;;;;;5095495;28;19979;-82
2021/10/01 01:43:01;;;;;;;;;;;11.90;99.90;;;;;;5097387;28;19930;-81
2021/10/01 01:45:29;;;;;;;;;;;12.00;99.90;;;;;;5097773;28;20008;-82
2021/10/01 01:47:56;;;;;;;;;;;11.90;99.90;;;;;;5096347;28;19924;-82
2021/10/01 01:50:24;;;;;;;;;;;11.90;99.90;;;;;;5093902;28;20434;-81
2021/10/01 01:52:52;;;;;;;;;;;12.00;99.90;;;;;;5097691;28;19930;-81
2021/10/01 01:55:19;;;;;;;;;;;12.00;99.90;;;;;;5096300;28;19931;-80
2021/10/01 01:57:47;;;;;;;;;;;12.00;99.90;;;;;;5096626;28;19924;-81
2021/10/01 02:00:13;;;;;;;;;;;12.00;99.90;;;;;;5101569;28;19930;-81
2021/10/01 02:02:40;;;;;;;;;;;11.90;99.90;;;;;;5095481;28;20016;-80
2021/10/01 02:05:08;;;;;;;;;;;11.90;99.90;;;;;;5100760;28;19924;-80
2021/10/01 02:07:36;;;;;;;;;;;11.90;99.90;;;;;;5093178;28;19924;-80
2021/10/01 02:10:04;;;;;;;;;;;11.80;99.90;;;;;;5090802;28;19924;-80
2021/10/01 02:12:31;;;;;;;;;;;11.80;99.90;;;;;;5090534;28;19932;-80
2021/10/01 02:14:59;;;;;;;;;;;11.70;99.90;;;;;;5098189;28;19924;-80
2021/10/01 02:17:28;;;;;;;;;;;11.70;99.90;;;;;;5090994;28;19986;-79
2021/10/01 02:19:55;;;;;;;;;;;11.60;99.90;;;;;;5094024;28;20465;-81
2021/10/01 02:22:22;;;;;;;;;;;11.60;99.90;;;;;;5099822;28;19931;-82
2021/10/01 02:24:51;;;;;;;;;;;11.50;99.90;;;;;;5101846;28;19930;-82
2021/10/01 02:27:19;;;;;;;;;;;11.50;99.90;;;;;;5099467;28;19942;-81
2021/10/01 02:29:49;;;;;;;;;;;11.50;99.90;;;;;;5098049;28;19928;-81
2021/10/01 02:32:22;;;;;;;;;;;11.40;99.90;;;;;;5097554;28;19997;-81
2021/10/01 02:34:50;;;;;;;;;;;11.40;99.90;;;;;;5098422;28;20409;-83
2021/10/01 02:37:17;;;;;;;;;;;11.40;99.90;;;;;;5095224;28;20022;-82
2021/10/01 02:39:44;;;;;;;;;;;11.50;99.90;;;;;;5105169;28;19930;-81
2021/10/01 02:42:13;;;;;;;;;;;11.50;99.90;;;;;;5095396;28;19934;-82
2021/10/01 02:44:40;;;;;;;;;;;11.60;99.90;;;;;;5092508;28;20345;-81
2021/10/01 02:47:07;;;;;;;;;;;11.60;99.90;;;;;;5097148;28;19930;-81
2021/10/01 02:49:34;;;;;;;;;;;11.70;99.90;;;;;;5103580;28;20382;-82
2021/10/01 02:52:05;;;;;;;;;;;11.70;99.90;;;;;;5101779;27;19928;-81
2021/10/01 02:54:34;;;;;;;;;;;11.80;99.90;;;;;;5097096;27;19923;-80
2021/10/01 02:57:05;;;;;;;;;;;11.80;99.90;;;;;;5108250;28;20650;-80
2021/10/01 02:59:34;;;;;;;;;;;11.80;99.90;;;;;;5102976;28;20015;-79
2021/10/01 03:02:01;;;;;;;;;;;11.80;99.90;;;;;;5097979;28;19938;-79
2021/10/01 03:04:28;;;;;;;;;;;11.70;99.90;;;;;;5105069;28;19924;-81
2021/10/01 03:06:55;;;;;;;;;;;11.60;99.90;;;;;;5097423;28;20434;-80
2021/10/01 03:09:23;;;;;;;;;;;11.50;99.90;;;;;;5090711;28;20399;-80
2021/10/01 03:11:50;;;;;;;;;;;11.50;99.90;;;;;;5094695;28;20517;-79
2021/10/01 03:14:18;;;;;;;;;;;11.50;99.90;;;;;;5093696;28;20035;-80
2021/10/01 03:16:46;;;;;;;;;;;11.40;99.90;;;;;;5102899;28;20019;-81
2021/10/01 03:19:12;;;;;;;;;;;11.30;99.90;;;;;;5093933;28;19932;-81
2021/10/01 03:21:41;;;;;;;;;;;11.30;99.90;;;;;;5093925;28;20404;-82
2021/10/01 03:24:09;;;;;;;;;;;11.30;99.90;;;;;;5098702;28;20012;-81
2021/10/01 03:26:35;;;;;;;;;;;11.30;99.90;;;;;;5095266;28;19924;-80
2021/10/01 03:29:02;;;;;;;;;;;11.30;99.90;;;;;;5103390;28;19969;-81
2021/10/01 03:31:29;;;;;;;;;;;11.20;99.90;;;;;;5100315;28;20477;-80
2021/10/01 03:33:57;;;;;;;;;;;11.20;99.90;;;;;;5093729;27;19928;-81
2021/10/01 03:36:24;;;;;;;;;;;11.20;99.90;;;;;;5093888;28;20030;-81
2021/10/01 03:38:54;;;;;;;;;;;11.20;99.90;;;;;;5097200;28;19924;-81
2021/10/01 03:41:20;;;;;;;;;;;11.20;99.90;;;;;;5095754;28;20293;-81
2021/10/01 03:43:47;;;;;;;;;;;11.30;99.90;;;;;;5097492;28;19924;-81
2021/10/01 03:46:14;;;;;;;;;;;11.20;99.90;;;;;;5101111;28;19924;-80
2021/10/01 03:48:40;;;;;;;;;;;11.20;99.90;;;;;;5102188;28;19931;-81
2021/10/01 03:51:08;;;;;;;;;;;11.30;99.90;;;;;;5109821;27;19923;-81
2021/10/01 03:53:35;;;;;;;;;;;11.30;99.90;;;;;;5095864;28;19928;-80
2021/10/01 03:56:02;;;;;;;;;;;11.30;99.90;;;;;;5106597;28;19923;-81
2021/10/01 03:58:28;;;;;;;;;;;11.30;99.90;;;;;;5103687;28;20357;-82
2021/10/01 04:00:55;;;;;;;;;;;11.30;99.90;;;;;;5097180;28;19925;-81
2021/10/01 04:03:22;;;;;;;;;;;11.20;99.90;;;;;;5096759;27;19924;-81
2021/10/01 04:05:48;;;;;;;;;;;11.20;99.90;;;;;;5096914;27;19923;-81
2021/10/01 04:08:16;;;;;;;;;;;11.20;99.90;;;;;;5099652;28;19930;-80
2021/10/01 04:10:43;;;;;;;;;;;11.20;99.90;;;;;;5093305;27;20630;-80
2021/10/01 04:13:10;;;;;;;;;;;11.20;99.90;;;;;;5093853;28;19932;-80
2021/10/01 04:15:36;;;;;;;;;;;11.20;99.90;;;;;;5100961;28;19923;-81
2021/10/01 04:18:03;;;;;;;;;;;11.20;99.90;;;;;;5099837;28;19924;-79
2021/10/01 04:20:32;;;;;;;;;;;11.20;99.90;;;;;;5093926;28;19924;-80
2021/10/01 04:23:00;;;;;;;;;;;11.20;99.90;;;;;;5091160;28;19932;-81
2021/10/01 04:25:28;;;;;;;;;;;11.20;99.90;;;;;;5100377;28;20358;-80
2021/10/01 04:27:55;;;;;;;;;;;11.20;99.90;;;;;;5101530;28;20306;-79
2021/10/01 04:30:21;;;;;;;;;;;11.20;99.90;;;;;;5094841;28;19930;-80
2021/10/01 04:32:58;;;;;;;;;;;11.20;99.90;;;;;;5098561;28;20026;-79
2021/10/01 04:35:25;;;;;;;;;;;11.20;99.90;;;;;;5092864;28;20442;-83
2021/10/01 04:37:51;;;;;;;;;;;11.20;99.90;;;;;;5092874;28;19924;-74
2021/10/01 04:40:18;;;;;;;;;;;11.20;99.90;;;;;;5093174;28;19978;-74
2021/10/01 04:42:46;;;;;;;;;;;11.20;99.90;;;;;;5089761;28;19924;-74
2021/10/01 04:45:13;;;;;;;;;;;11.20;99.90;;;;;;5086968;28;19935;-74
2021/10/01 04:47:39;;;;;;;;;;;11.20;99.90;;;;;;5092504;28;20339;-75
2021/10/01 04:50:06;;;;;;;;;;;11.20;99.90;;;;;;5093277;28;20360;-74
2021/10/01 04:52:33;;;;;;;;;;;11.20;99.90;;;;;;5088970;28;20393;-74
2021/10/01 04:55:00;;;;;;;;;;;11.10;99.90;;;;;;5094068;28;20137;-75
2021/10/01 04:57:27;;;;;;;;;;;11.20;99.90;;;;;;5087534;28;19939;-74
2021/10/01 04:59:55;;;;;;;;;;;11.20;99.90;;;;;;5086893;28;19971;-73
2021/10/01 05:02:21;;;;;;;;;;;11.20;99.90;;;;;;5099937;28;19923;-74
2021/10/01 05:04:51;;;;;;;;;;;11.20;99.90;;;;;;5099163;28;19927;-74
2021/10/01 05:07:19;;;;;;;;;;;11.20;99.90;;;;;;5098881;28;19932;-73
2021/10/01 05:09:46;;;;;;;;;;;11.20;99.90;;;;;;5093902;28;19931;-73
2021/10/01 05:12:13;;;;;;;;;;;11.30;99.90;;;;;;5089993;28;19931;-72
2021/10/01 05:14:40;;;;;;;;;;;11.30;99.90;;;;;;5090403;28;19924;-74
2021/10/01 05:17:08;;;;;;;;;;;11.30;99.90;;;;;;5095621;28;20435;-74
2021/10/01 05:19:34;;;;;;;;;;;11.30;99.90;;;;;;5090220;28;20631;-73
2021/10/01 05:22:01;;;;;;;;;;;11.40;99.90;;;;;;5090347;28;19931;-74
2021/10/01 05:24:28;;;;;;;;;;;11.50;99.90;;;;;;5094400;28;19931;-75
2021/10/01 05:26:57;;;;;;;;;;;11.60;99.90;;;;;;5098412;28;19928;-73
2021/10/01 05:29:24;;;;;;;;;;;11.70;99.90;;;;;;5099848;28;19924;-73
2021/10/01 05:31:51;;;;;;;;;;;11.70;99.90;;;;;;5105387;27;19931;-74
2021/10/01 05:34:19;;;;;;;;;;;11.80;99.90;;;;;;5104478;28;20022;-74
2021/10/01 05:36:45;;;;;;;;;;;11.80;99.90;;;;;;5095442;28;20847;-73
2021/10/01 05:39:12;;;;;;;;;;;11.80;99.90;;;;;;5095030;28;20034;-73
2021/10/01 05:41:39;;;;;;;;;;;11.90;99.90;;;;;;5093577;28;22211;-73
2021/10/01 05:44:05;;;;;;;;;;;11.90;99.90;;;;;;5103972;28;19924;-73
2021/10/01 05:46:32;;;;;;;;;;;11.90;99.90;;;;;;5089193;28;19975;-73
2021/10/01 05:49:01;;;;;;;;;;;12.00;99.90;;;;;;5086866;28;19946;-75
2021/10/01 05:51:31;;;;;;;;;;;12.00;99.90;;;;;;5090049;28;19928;-74
2021/10/01 05:54:11;;;;;;;;;;;12.00;99.90;;;;;;5110734;28;19924;-74
2021/10/01 05:56:38;;;;;;;;;;;12.00;99.90;;;;;;5102553;28;19924;-75
2021/10/01 05:59:05;;;;;;;;;;;12.00;99.90;;;;;;5097479;28;19943;-78
2021/10/01 06:01:32;;;;;;;;;;;12.10;99.90;;;;;;5094262;27;19931;-74
2021/10/01 06:03:59;;;;;;;;;;;12.10;99.90;;;;;;5101249;28;19924;-73
2021/10/01 06:06:25;;;;;;;;;;;12.00;99.90;;;;;;5105640;28;20023;-73
2021/10/01 06:08:53;;;;;;;;;;;12.00;99.90;;;;;;5109210;28;19924;-74
2021/10/01 06:11:20;;;;;;;;;;;12.00;99.90;;;;;;5093273;28;23406;-74
2021/10/01 06:13:49;;;;;;;;;;;12.00;99.90;;;;;;5094480;28;20075;-74
2021/10/01 06:16:16;;;;;;;;;;;12.00;99.90;;;;;;5098066;28;19942;-74
2021/10/01 06:18:43;;;;;;;;;;;12.00;99.90;;;;;;5096279;28;20280;-75
2021/10/01 06:21:09;;;;;;;;;;;12.10;99.90;;;;;;5109101;28;19933;-75
2021/10/01 06:23:36;;;;;;;;;;;12.10;99.90;;;;;;5091970;28;19924;-76
2021/10/01 06:26:05;;;;;;;;;;;12.20;99.90;;;;;;5089140;28;19930;-76
2021/10/01 06:28:31;;;;;;;;;;;12.20;99.90;;;;;;5089634;28;19935;-77
2021/10/01 06:31:01;;;;;;;;;;;12.10;99.90;;;;;;5089648;28;20261;-77
2021/10/01 06:33:28;;;;;;;;;;;12.10;99.90;;;;;;5084217;28;20298;-76
2021/10/01 06:35:55;;;;;;;;;;;12.00;99.90;;;;;;5093237;28;19960;-76
2021/10/01 06:38:22;;;;;;;;;;;12.00;99.90;;;;;;5094236;28;20065;-76
2021/10/01 06:40:48;;;;;;;;;;;12.10;99.90;;;;;;5101019;28;20038;-75
2021/10/01 06:43:18;;;;;;;;;;;12.00;99.90;;;;;;5096111;27;19928;-79
2021/10/01 06:45:48;;;;;;;;;;;12.10;99.90;;;;;;5093603;27;19939;-77
2021/10/01 06:48:25;;;;;;;;;;;12.10;99.90;;;;;;5090349;28;20021;-77
2021/10/01 07:35:34;;;;;;;;;;;12.40;99.90;;;;;;5093450;28;19947;-78
2021/10/01 08:19:24;;;;;;;;;;;13.90;99.90;;;;;;5090548;28;20073;-73
2021/10/01 08:21:54;;;;;;;;;;;14.00;99.90;;;;;;5090574;28;21108;-73
2021/10/01 08:24:21;;;;;;;;;;;14.10;99.90;;;;;;5089918;28;19931;-73
2021/10/01 08:26:48;;;;;;;;;;;14.00;99.90;;;;;;5088126;28;20006;-73
2021/10/01 08:29:16;;;;;;;;;;;14.00;99.90;;;;;;5090524;28;19945;-73
2021/10/01 08:31:42;;;;;;;;;;;14.10;99.90;;;;;;5097331;28;19924;-72
2021/10/01 08:34:09;;;;;;;;;;;14.10;99.90;;;;;;5094460;28;19932;-73
2021/10/01 08:36:36;;;;;;;;;;;14.20;99.90;;;;;;5091675;28;19962;-74
2021/10/01 08:39:04;;;;;;;;;;;14.30;99.90;;;;;;5090470;28;19939;-73
2021/10/01 08:41:31;;;;;;;;;;;14.40;99.90;;;;;;5093493;28;19932;-73
2021/10/01 08:43:58;;;;;;;;;;;14.40;99.90;;;;;;5093059;28;20335;-73
2021/10/01 08:46:25;;;;;;;;;;;14.30;99.90;;;;;;5088892;28;19924;-73
2021/10/01 08:48:53;;;;;;;;;;;14.30;99.90;;;;;;5090969;28;19930;-73
2021/10/01 08:51:19;;;;;;;;;;;14.20;99.90;;;;;;5092168;28;19928;-74
2021/10/01 08:53:52;;;;;;;;;;;14.30;99.90;;;;;;5095249;28;19924;-74
2021/10/01 08:56:20;;;;;;;;;;;14.40;99.90;;;;;;5090021;28;19937;-74
2021/10/01 08:58:47;;;;;;;;;;;14.60;99.90;;;;;;5098551;28;19932;-74
2021/10/01 09:01:14;;;;;;;;;;;14.60;99.90;;;;;;5090252;28;19939;-76
2021/10/01 09:03:41;;;;;;;;;;;14.50;99.90;;;;;;5098765;28;20299;-73
2021/10/01 09:06:07;;;;;;;;;;;14.50;99.90;;;;;;5097241;28;20283;-73
2021/10/01 09:08:34;;;;;;;;;;;14.40;99.90;;;;;;5100443;28;20043;-75
2021/10/01 09:11:02;;;;;;;;;;;14.30;99.90;;;;;;5094032;28;20354;-74
2021/10/01 09:13:31;;;;;;;;;;;14.30;99.90;;;;;;5098119;28;19950;-74
2021/10/01 09:16:02;;;;;;;;;;;14.50;99.90;;;;;;5087037;28;20391;-74
2021/10/01 09:18:30;;;;;;;;;;;14.40;99.90;;;;;;5099225;28;19924;-74
2021/10/01 09:21:04;;;;;;;;;;;14.50;99.90;;;;;;5091886;28;19930;-74
2021/10/01 09:23:31;;;;;;;;;;;14.50;99.90;;;;;;5097814;28;19930;-74
2021/10/01 09:26:06;;;;;;;;;;;14.50;99.90;;;;;;5086560;28;20026;-75
2021/10/01 09:28:44;;;;;;;;;;;14.60;99.90;;;;;;5093288;28;19944;-73
2021/10/01 09:31:29;;;;;;;;;;;14.80;99.90;;;;;;5098485;28;19924;-74
2021/10/01 09:33:55;;;;;;;;;;;14.90;99.90;;;;;;5095593;28;19923;-71
2021/10/01 09:36:22;;;;;;;;;;;14.80;99.90;;;;;;5091036;28;19924;-71
2021/10/01 09:38:51;;;;;;;;;;;15.00;99.90;;;;;;5091222;28;20273;-70
2021/10/01 09:41:22;;;;;;;;;;;15.10;99.90;;;;;;5089753;28;19963;-73
2021/10/01 09:43:59;;;;;;;;;;;15.10;99.90;;;;;;5093336;28;19928;-72
2021/10/01 09:46:33;;;;;;;;;;;15.00;99.90;;;;;;5092905;28;19923;-72
2021/10/01 09:49:01;;;;;;;;;;;15.20;99.90;;;;;;5085992;28;19924;-74
2021/10/01 09:51:27;;;;;;;;;;;15.40;99.90;;;;;;5092285;28;19984;-73
2021/10/01 09:53:54;;;;;;;;;;;15.40;99.90;;;;;;5093072;28;20007;-73
2021/10/01 09:56:22;;;;;;;;;;;15.40;99.90;;;;;;5093451;28;19924;-73
2021/10/01 09:59:04;;;;;;;;;;;15.50;99.90;;;;;;5092261;28;19933;-75
2021/10/01 10:01:32;;;;;;;;;;;15.40;99.90;;;;;;5091032;28;19928;-73
2021/10/01 10:03:59;;;;;;;;;;;15.50;99.90;;;;;;5094645;28;19971;-76
2021/10/01 10:06:26;;;;;;;;;;;15.60;99.90;;;;;;5092306;28;19932;-75
2021/10/01 10:09:00;;;;;;;;;;;15.60;99.90;;;;;;5098300;28;20171;-76
2021/10/01 10:11:28;;;;;;;;;;;15.70;99.90;;;;;;5096915;28;19924;-76
2021/10/01 10:13:55;;;;;;;;;;;15.80;99.90;;;;;;5099604;28;19934;-77
2021/10/01 10:16:23;;;;;;;;;;;16.00;99.90;;;;;;5096025;28;19931;-77
2021/10/01 10:18:52;;;;;;;;;;;16.00;99.90;;;;;;5089284;28;20343;-75
2021/10/01 10:21:19;;;;;;;;;;;16.00;99.90;;;;;;5095818;28;19936;-75
2021/10/01 10:23:46;;;;;;;;;;;16.00;99.90;;;;;;5087362;28;20429;-75
2021/10/01 10:26:13;;;;;;;;;;;16.30;99.90;;;;;;5089854;28;20097;-75
2021/10/01 10:28:41;;;;;;;;;;;16.30;99.90;;;;;;5094577;28;20007;-76
2021/10/01 10:31:09;;;;;;;;;;;16.20;99.90;;;;;;5095294;28;19930;-75
2021/10/01 10:33:36;;;;;;;;;;;16.30;99.90;;;;;;5094541;28;19979;-75
2021/10/01 10:36:25;;;;;;;;;;;16.30;99.90;;;;;;5098617;28;19927;-74
2021/10/01 10:38:52;;;;;;;;;;;16.20;99.90;;;;;;5096048;28;20290;-76
2021/10/01 10:41:22;;;;;;;;;;;16.30;99.90;;;;;;5096312;28;19924;-76
2021/10/01 10:43:49;;;;;;;;;;;16.20;99.90;;;;;;5100604;28;20210;-76
2021/10/01 10:46:31;;;;;;;;;;;16.30;99.90;;;;;;5098469;28;19924;-75
2021/10/01 10:49:12;;;;;;;;;;;16.30;99.90;;;;;;5099356;28;19931;-74
2021/10/01 10:51:54;;;;;;;;;;;16.50;99.90;;;;;;5095172;28;19924;-75
2021/10/01 10:54:22;;;;;;;;;;;16.70;99.90;;;;;;5091901;27;19928;-72
2021/10/01 10:57:11;;;;;;;;;;;16.80;99.90;;;;;;5092061;27;19934;-73
2021/10/01 10:59:38;;;;;;;;;;;16.50;99.90;;;;;;5087187;28;19928;-72
2021/10/01 11:02:17;;;;;;;;;;;16.30;99.90;;;;;;5097021;28;19924;-73
2021/10/01 11:04:48;;;;;;;;;;;16.40;99.90;;;;;;5096962;28;19931;-73
2021/10/01 11:07:30;;;;;;;;;;;16.40;99.90;;;;;;5096113;28;19973;-72
2021/10/01 11:10:18;;;;;;;;;;;16.30;99.90;;;;;;5093194;28;19932;-73
2021/10/01 11:12:44;;;;;;;;;;;16.30;99.90;;;;;;5094915;28;19927;-72
2021/10/01 11:15:20;;;;;;;;;;;16.40;99.90;;;;;;5101099;28;19930;-73
2021/10/01 11:18:02;;;;;;;;;;;16.40;99.90;;;;;;5097208;28;19928;-72
2021/10/01 11:20:35;;;;;;;;;;;16.50;99.90;;;;;;5092593;27;20014;-72
2021/10/01 11:23:13;;;;;;;;;;;16.60;99.90;;;;;;5091211;28;19991;-73
2021/10/01 11:25:42;;;;;;;;;;;16.70;99.90;;;;;;5093602;28;20014;-73
2021/10/01 11:28:11;;;;;;;;;;;16.80;99.90;;;;;;5090531;27;20394;-72
2021/10/01 11:30:39;;;;;;;;;;;16.70;99.90;;;;;;5096412;28;20375;-71
2021/10/01 11:33:09;;;;;;;;;;;16.70;99.90;;;;;;5093864;27;19924;-71
2021/10/01 11:35:49;;;;;;;;;;;16.80;99.90;;;;;;5094242;28;19928;-72
2021/10/01 11:38:20;;;;;;;;;;;16.80;99.90;;;;;;5100850;27;19932;-74
2021/10/01 11:40:48;;;;;;;;;;;16.80;99.90;;;;;;5092319;27;19932;-73
2021/10/01 11:43:15;;;;;;;;;;;16.80;99.90;;;;;;5097702;28;20010;-74
2021/10/01 11:45:45;;;;;;;;;;;16.70;99.90;;;;;;5090043;28;20023;-73
2021/10/01 11:48:13;;;;;;;;;;;16.70;99.90;;;;;;5102431;28;20293;-75
2021/10/01 11:50:41;;;;;;;;;;;16.70;99.90;;;;;;5102602;27;20014;-74
2021/10/01 11:53:16;;;;;;;;;;;16.80;99.90;;;;;;5098648;28;20011;-74
2021/10/01 11:55:51;;;;;;;;;;;16.70;99.90;;;;;;5097815;28;19924;-73
2021/10/01 11:58:18;;;;;;;;;;;16.80;99.90;;;;;;5102689;28;19924;-74
2021/10/01 12:00:44;;;;;;;;;;;16.80;99.90;;;;;;5098678;28;19971;-74
2021/10/01 12:03:12;;;;;;;;;;;16.80;99.90;;;;;;5091938;28;19932;-74
2021/10/01 12:05:40;;;;;;;;;;;16.80;99.90;;;;;;5097633;27;19930;-73
2021/10/01 12:08:08;;;;;;;;;;;16.80;99.90;;;;;;5096396;27;19924;-73
2021/10/01 12:10:35;;;;;;;;;;;16.90;99.90;;;;;;5096126;28;19923;-74
2021/10/01 12:13:05;;;;;;;;;;;16.80;99.90;;;;;;5098786;28;20297;-74
2021/10/01 12:15:49;;;;;;;;;;;16.60;99.90;;;;;;5096922;28;19964;-74
2021/10/01 12:18:26;;;;;;;;;;;16.50;99.90;;;;;;5093023;28;19939;-73
2021/10/01 12:20:53;;;;;;;;;;;16.40;99.90;;;;;;5091929;28;19943;-73
2021/10/01 12:23:21;;;;;;;;;;;16.50;99.90;;;;;;5095759;28;19931;-73
2021/10/01 12:25:48;;;;;;;;;;;16.50;99.90;;;;;;5094159;28;20030;-73
2021/10/01 12:28:16;;;;;;;;;;;16.50;99.90;;;;;;5100469;28;19946;-73
2021/10/01 12:30:42;;;;;;;;;;;16.50;99.90;;;;;;5094040;28;19927;-74
2021/10/01 12:33:09;;;;;;;;;;;16.70;99.90;;;;;;5094439;28;19932;-74
2021/10/01 12:35:36;;;;;;;;;;;16.80;99.90;;;;;;5089985;28;19924;-73
2021/10/01 12:38:03;;;;;;;;;;;16.80;99.90;;;;;;5093578;28;19930;-75
2021/10/01 12:40:31;;;;;;;;;;;16.80;99.90;;;;;;5094664;28;20426;-75
2021/10/01 12:42:57;;;;;;;;;;;16.70;99.90;;;;;;5098694;28;20370;-75
2021/10/01 12:45:25;;;;;;;;;;;16.60;99.90;;;;;;5093267;28;20391;-75
2021/10/01 12:47:52;;;;;;;;;;;16.40;99.90;;;;;;5092358;28;20027;-75
2021/10/01 12:50:19;;;;;;;;;;;16.30;99.90;;;;;;5093802;28;20016;-75
2021/10/01 12:52:54;;;;;;;;;;;16.20;99.90;;;;;;5091073;28;20017;-73
2021/10/01 12:55:21;;;;;;;;;;;16.20;99.90;;;;;;5092195;28;19930;-74
2021/10/01 12:57:48;;;;;;;;;;;16.10;99.90;;;;;;5099494;28;19923;-73
2021/10/01 13:00:17;;;;;;;;;;;16.10;99.90;;;;;;5094917;28;20018;-75
2021/10/01 13:02:45;;;;;;;;;;;16.20;99.90;;;;;;5095066;28;20019;-74
2021/10/01 13:05:14;;;;;;;;;;;16.20;99.90;;;;;;5094231;28;20442;-76
2021/10/01 13:07:41;;;;;;;;;;;16.40;99.90;;;;;;5100160;28;19931;-74
2021/10/01 13:10:23;;;;;;;;;;;16.60;99.90;;;;;;5094480;28;19931;-75
2021/10/01 13:12:51;;;;;;;;;;;16.90;99.90;;;;;;5095601;28;19924;-74
2021/10/01 13:15:20;;;;;;;;;;;17.00;99.90;;;;;;5093798;28;19945;-75
2021/10/01 13:18:01;;;;;;;;;;;17.00;99.90;;;;;;5102031;28;20294;-75
2021/10/01 13:20:28;;;;;;;;;;;17.10;99.90;;;;;;5090569;28;19931;-74
2021/10/01 13:22:57;;;;;;;;;;;17.00;99.90;;;;;;5093878;28;20023;-73
2021/10/01 13:25:24;;;;;;;;;;;17.00;99.90;;;;;;5097462;28;19938;-74
2021/10/01 13:27:51;;;;;;;;;;;17.00;99.90;;;;;;5095190;28;19975;-74
2021/10/01 13:30:18;;;;;;;;;;;16.90;99.90;;;;;;5089775;27;19932;-71
2021/10/01 13:32:45;;;;;;;;;;;16.60;99.90;;;;;;5090054;28;19937;-73
2021/10/01 13:35:15;;;;;;;;;;;16.50;99.90;;;;;;5094110;28;20018;-72
2021/10/01 13:37:42;;;;;;;;;;;16.30;99.90;;;;;;5094651;28;19931;-72
2021/10/01 13:40:15;;;;;;;;;;;16.30;99.90;;;;;;5094017;28;20433;-73
2021/10/01 13:42:45;;;;;;;;;;;16.30;99.90;;;;;;5092715;28;19931;-72
2021/10/01 13:45:12;;;;;;;;;;;16.40;99.90;;;;;;5097172;28;19970;-72
2021/10/01 13:47:42;;;;;;;;;;;16.40;99.90;;;;;;5091549;28;20282;-71
2021/10/01 13:50:10;;;;;;;;;;;16.30;99.90;;;;;;5092037;28;19931;-71
2021/10/01 13:52:38;;;;;;;;;;;16.30;99.90;;;;;;5095699;28;20026;-74
2021/10/01 13:55:06;;;;;;;;;;;16.40;99.90;;;;;;5091690;28;19932;-75
2021/10/01 13:57:32;;;;;;;;;;;16.40;99.90;;;;;;5094217;28;19930;-73
2021/10/01 13:59:59;;;;;;;;;;;16.50;99.90;;;;;;5094057;28;20026;-73
2021/10/01 14:02:26;;;;;;;;;;;16.50;99.90;;;;;;5088124;28;19969;-74
2021/10/01 14:04:52;;;;;;;;;;;16.60;99.90;;;;;;5091165;28;19931;-74
2021/10/01 14:07:19;;;;;;;;;;;16.60;99.90;;;;;;5085943;28;19939;-74
2021/10/01 14:09:47;;;;;;;;;;;16.60;99.90;;;;;;5089178;28;19924;-75
2021/10/01 14:12:15;;;;;;;;;;;16.50;99.90;;;;;;5094629;28;20026;-72
2021/10/01 14:14:41;;;;;;;;;;;16.40;99.90;;;;;;5096471;28;19966;-74
2021/10/01 14:17:08;;;;;;;;;;;16.40;99.90;;;;;;5096262;28;20099;-73
2021/10/01 14:19:35;;;;;;;;;;;16.50;99.90;;;;;;5097177;28;19942;-71
2021/10/01 14:22:01;;;;;;;;;;;16.50;99.90;;;;;;5097299;27;19928;-73
2021/10/01 14:24:28;;;;;;;;;;;16.60;99.90;;;;;;5100783;28;19989;-76
2021/10/01 14:26:56;;;;;;;;;;;16.60;99.90;;;;;;5096450;28;19930;-76
2021/10/01 14:29:23;;;;;;;;;;;16.60;99.90;;;;;;5103638;27;19924;-73
2021/10/01 14:31:50;;;;;;;;;;;16.60;99.90;;;;;;5095813;27;19932;-77
2021/10/01 14:34:16;;;;;;;;;;;16.70;99.90;;;;;;5099342;28;19924;-72
2021/10/01 14:36:44;;;;;;;;;;;16.70;99.90;;;;;;5088961;27;19928;-74
2021/10/01 14:39:11;;;;;;;;;;;16.80;99.90;;;;;;5091331;27;20338;-73
2021/10/01 14:41:37;;;;;;;;;;;16.80;99.90;;;;;;5092456;28;19994;-72
2021/10/01 14:44:06;;;;;;;;;;;16.90;99.90;;;;;;5099267;28;20438;-74
2021/10/01 14:46:32;;;;;;;;;;;16.90;99.90;;;;;;5092246;28;19931;-73
2021/10/01 14:48:59;;;;;;;;;;;16.80;99.90;;;;;;5095279;28;19942;-70
2021/10/01 14:51:26;;;;;;;;;;;16.80;99.90;;;;;;5101265;27;20471;-73
2021/10/01 14:53:53;;;;;;;;;;;16.70;99.90;;;;;;5093094;28;20011;-72
2021/10/01 14:56:19;;;;;;;;;;;16.70;99.90;;;;;;5092151;27;20283;-71
2021/10/01 14:58:46;;;;;;;;;;;16.70;99.90;;;;;;5092186;28;20007;-71
2021/10/01 15:01:14;;;;;;;;;;;16.70;99.90;;;;;;5102153;27;19932;-73
2021/10/01 15:03:41;;;;;;;;;;;16.60;99.90;;;;;;5088562;28;20572;-73
2021/10/01 15:06:08;;;;;;;;;;;16.60;99.90;;;;;;5095335;28;20357;-72
2021/10/01 15:08:34;;;;;;;;;;;16.60;99.90;;;;;;5094556;28;20057;-72
2021/10/01 15:11:01;;;;;;;;;;;16.40;99.90;;;;;;5094018;28;19923;-73
2021/10/01 15:13:28;;;;;;;;;;;16.40;99.90;;;;;;5095805;28;20022;-73
2021/10/01 15:15:55;;;;;;;;;;;16.30;99.90;;;;;;5094636;28;20013;-73
2021/10/01 15:18:23;;;;;;;;;;;16.10;99.90;;;;;;5092914;28;19986;-74
2021/10/01 15:20:50;;;;;;;;;;;15.90;99.90;;;;;;5095655;28;19950;-72
2021/10/01 15:23:18;;;;;;;;;;;15.80;99.90;;;;;;5087658;28;20069;-73
2021/10/01 15:25:44;;;;;;;;;;;15.70;99.90;;;;;;5090817;28;19931;-74
2021/10/01 15:28:12;;;;;;;;;;;15.60;99.90;;;;;;5091084;27;19931;-74
2021/10/01 15:30:39;;;;;;;;;;;15.50;99.90;;;;;;5094096;28;19939;-73
2021/10/01 15:33:07;;;;;;;;;;;15.50;99.90;;;;;;5087186;28;20008;-73
2021/10/01 15:35:35;;;;;;;;;;;15.40;99.90;;;;;;5089990;27;20391;-72
2021/10/01 15:38:03;;;;;;;;;;;15.30;99.90;;;;;;5102030;27;19942;-72
2021/10/01 15:40:32;;;;;;;;;;;15.30;99.90;;;;;;5096261;28;19924;-74
2021/10/01 15:42:59;;;;;;;;;;;15.30;99.90;;;;;;5089678;28;19929;-72
2021/10/01 15:45:26;;;;;;;;;;;15.20;99.90;;;;;;5094381;28;19942;-74
2021/10/01 15:47:53;;;;;;;;;;;15.20;99.90;;;;;;5088913;27;19932;-72
2021/10/01 15:50:20;;;;;;;;;;;15.20;99.90;;;;;;5090101;28;20366;-72